Westwego, Louisiana
Current Conditions -  °F | °C
As of 3:35 PM on Wednesday 26 Nov 2014 (Local Time) from KVSH Reporting Station
Clear Clear  
Wind Chill: 19°   Ceiling: Unl
Heat Index: 19°   Visibility: 10mi
Dew Point:   Wind: 12mph
Humidity: 32%   Direction: 200°SSW
Pressure: 30.18"   Gusts: 21mph
Location:  29.91°N, 90.14°W
Report Text: KVSH 262135Z AUTO 20010G18KT 10SM CLR 19/02 A3018 RMK AO1
Loading
Personal Weather Stations






























Interactive Weather Map New forecast layout! Learn more

10-Day Weather Forecast

Advertisements
Track Severe Weather on mobile